Time;durP1;ratioP1;P1;durP2;ratioP2;P2;SDS_P1;SDS_P2;PMS_P1;PMS_P2;Temp;Humidity;BMP_temperature;BMP_pressure;BME280_temperature;BME280_humidity;BME280_pressure;Samples;Min_cycle;Max_cycle;Signal;HPM_P1;HPM_P2
2024/01/12 00:02:18;;;;;;;;;;;;;;;-0.22;100.00;103381.44;4943544;28;19922;-70
2024/01/12 00:04:43;;;;;;;;;;;;;;;-0.21;100.00;103378.78;4945156;28;19922;-70
2024/01/12 00:07:08;;;;;;;;;;;;;;;-0.22;100.00;103382.28;4948607;28;20044;-70
2024/01/12 00:09:33;;;;;;;;;;;;;;;-0.29;100.00;103369.03;4962298;28;20589;-70
2024/01/12 00:11:59;;;;;;;;;;;;;;;-0.23;100.00;103383.16;4942442;28;20304;-69
2024/01/12 00:14:24;;;;;;;;;;;;;;;-0.21;100.00;103386.72;4941886;28;19998;-69
2024/01/12 00:16:49;;;;;;;;;;;;;;;-0.21;100.00;103378.78;4942200;28;19923;-69
2024/01/12 00:19:14;;;;;;;;;;;;;;;-0.23;100.00;103374.38;4941834;28;19932;-70
2024/01/12 00:21:43;;;;;;;;;;;;;;;-0.21;100.00;103372.63;4935775;28;20372;-70
2024/01/12 00:24:09;;;;;;;;;;;;;;;-0.22;100.00;103374.38;4942219;28;19929;-70
2024/01/12 00:26:34;;;;;;;;;;;;;;;-0.19;100.00;103382.34;4943724;28;19926;-70
2024/01/12 00:28:59;;;;;;;;;;;;;;;-0.17;100.00;103382.34;4948559;28;19922;-70
2024/01/12 00:31:24;;;;;;;;;;;;;;;-0.19;100.00;103382.34;4945494;28;19929;-70
2024/01/12 00:33:50;;;;;;;;;;;;;;;-0.33;100.00;103357.59;4951244;28;19926;-70
2024/01/12 00:36:15;;;;;;;;;;;;;;;-0.20;100.00;103384.97;4944462;28;19986;-70
2024/01/12 00:38:40;;;;;;;;;;;;;;;-0.20;100.00;103377.06;4941677;28;19993;-70
2024/01/12 00:41:05;;;;;;;;;;;;;;;-0.18;100.00;103378.81;4946110;28;19923;-70
2024/01/12 00:43:31;;;;;;;;;;;;;;;-0.17;100.00;103377.94;4943629;28;19965;-70
2024/01/12 00:45:56;;;;;;;;;;;;;;;-0.19;100.00;103373.53;4945186;28;20025;-70
2024/01/12 00:48:21;;;;;;;;;;;;;;;-0.19;100.00;103369.13;4944406;28;20407;-70
2024/01/12 00:50:47;;;;;;;;;;;;;;;-0.21;100.00;103368.22;4951136;28;20440;-70
2024/01/12 00:53:12;;;;;;;;;;;;;;;-0.25;100.00;103374.34;4948584;28;19926;-70
2024/01/12 00:55:37;;;;;;;;;;;;;;;-0.26;100.00;103366.44;4949384;28;19922;-70
2024/01/12 00:58:03;;;;;;;;;;;;;;;-0.26;100.00;103372.56;4953672;28;19922;-70
2024/01/12 01:00:28;;;;;;;;;;;;;;;-0.27;100.00;103377.84;4955712;28;19922;-70
2024/01/12 01:02:53;;;;;;;;;;;;;;;-0.26;100.00;103377.00;4950895;28;20437;-70
2024/01/12 01:05:18;;;;;;;;;;;;;;;-0.25;100.00;103389.31;4947900;28;20355;-70
2024/01/12 01:07:43;;;;;;;;;;;;;;;-0.22;100.00;103392.84;4952707;28;20376;-70
2024/01/12 01:10:09;;;;;;;;;;;;;;;-0.21;100.00;103388.47;4946206;28;20455;-70
2024/01/12 01:12:34;;;;;;;;;;;;;;;-0.20;100.00;103387.63;4950007;28;20051;-70
2024/01/12 01:14:59;;;;;;;;;;;;;;;-0.18;100.00;103381.47;4951485;28;19922;-69
2024/01/12 01:17:25;;;;;;;;;;;;;;;-0.16;100.00;103389.41;4949955;28;20383;-70
2024/01/12 01:19:50;;;;;;;;;;;;;;;-0.12;100.00;103400.88;4950073;28;20611;-69
2024/01/12 01:22:15;;;;;;;;;;;;;;;-0.12;100.00;103403.50;4950563;28;19944;-70
2024/01/12 01:24:41;;;;;;;;;;;;;;;-0.11;100.00;103410.56;4946238;28;20006;-70
2024/01/12 01:27:07;;;;;;;;;;;;;;;-0.16;100.00;103411.41;4951932;28;19922;-69
2024/01/12 01:29:32;;;;;;;;;;;;;;;-0.14;100.00;103411.44;4945291;28;20005;-69
2024/01/12 01:31:57;;;;;;;;;;;;;;;-0.12;100.00;103406.16;4948456;28;20025;-69
2024/01/12 01:34:22;;;;;;;;;;;;;;;-0.11;100.00;103419.34;4955158;28;20336;-69
2024/01/12 01:36:48;;;;;;;;;;;;;;;-0.11;100.00;103414.06;4948993;28;20396;-69
2024/01/12 01:39:14;;;;;;;;;;;;;;;-0.08;100.00;103419.38;4948464;28;20891;-70
2024/01/12 01:41:39;;;;;;;;;;;;;;;-0.09;100.00;103417.63;4955649;28;19926;-70
2024/01/12 01:44:04;;;;;;;;;;;;;;;-0.08;100.00;103419.38;4947264;28;19965;-70
2024/01/12 01:46:29;;;;;;;;;;;;;;;-0.11;100.00;103410.56;4948071;28;19926;-70
2024/01/12 01:48:55;;;;;;;;;;;;;;;-0.12;100.00;103409.66;4947448;28;19922;-69
2024/01/12 01:51:20;;;;;;;;;;;;;;;-0.10;100.00;103413.22;4952041;28;20595;-70
2024/01/12 01:53:45;;;;;;;;;;;;;;;-0.11;100.00;103406.16;4955316;28;19992;-70
2024/01/12 01:56:10;;;;;;;;;;;;;;;-0.12;100.00;103401.75;4960896;28;19922;-69
2024/01/12 01:58:36;;;;;;;;;;;;;;;-0.13;100.00;103405.25;4946026;28;19961;-70
2024/01/12 02:01:01;;;;;;;;;;;;;;;-0.17;100.00;103400.84;4947223;28;20018;-70
2024/01/12 02:03:26;;;;;;;;;;;;;;;-0.21;100.00;103406.97;4951429;28;20368;-69
2024/01/12 02:05:52;;;;;;;;;;;;;;;-0.29;100.00;103396.34;4956242;28;20287;-69
2024/01/12 02:08:17;;;;;;;;;;;;;;;-0.26;100.00;103392.84;4948191;28;20376;-69
2024/01/12 02:10:42;;;;;;;;;;;;;;;-0.26;100.00;103406.03;4947457;28;20695;-69
2024/01/12 02:13:07;;;;;;;;;;;;;;;-0.23;100.00;103398.16;4966645;28;20360;-70
2024/01/12 02:15:33;;;;;;;;;;;;;;;-0.24;100.00;103394.59;4953545;28;20005;-70
2024/01/12 02:17:58;;;;;;;;;;;;;;;-0.22;100.00;103395.50;4955982;28;19931;-70
2024/01/12 02:20:23;;;;;;;;;;;;;;;-0.17;100.00;103395.56;4954413;28;19922;-70
2024/01/12 02:22:48;;;;;;;;;;;;;;;-0.17;100.00;103395.56;4957127;28;20001;-70
2024/01/12 02:25:14;;;;;;;;;;;;;;;-0.17;100.00;103393.78;4951749;28;19929;-70
2024/01/12 02:27:39;;;;;;;;;;;;;;;-0.21;100.00;103391.13;4959238;28;19974;-70
2024/01/12 02:30:04;;;;;;;;;;;;;;;-0.23;100.00;103387.59;4964376;28;19922;-70
2024/01/12 02:32:30;;;;;;;;;;;;;;;-0.29;100.00;103385.78;4961679;28;19933;-70
2024/01/12 02:34:55;;;;;;;;;;;;;;;-0.31;100.00;103387.53;4954312;28;19930;-70
2024/01/12 02:37:20;;;;;;;;;;;;;;;-0.30;100.00;103381.38;4951181;28;19973;-70
2024/01/12 02:39:46;;;;;;;;;;;;;;;-0.27;100.00;103378.75;4952991;28;20013;-70
2024/01/12 02:42:11;;;;;;;;;;;;;;;-0.26;100.00;103379.63;4951308;28;19925;-70
2024/01/12 02:44:36;;;;;;;;;;;;;;;-0.25;100.00;103377.00;4952299;28;19960;-70
2024/01/12 02:47:02;;;;;;;;;;;;;;;-0.27;100.00;103372.56;4954089;28;20017;-70
2024/01/12 02:49:27;;;;;;;;;;;;;;;-0.25;100.00;103377.00;4955055;28;19918;-70
2024/01/12 02:51:52;;;;;;;;;;;;;;;-0.21;100.00;103383.19;4950539;28;20385;-70
2024/01/12 02:54:17;;;;;;;;;;;;;;;-0.18;100.00;103388.50;4953754;28;19923;-70
2024/01/12 02:56:42;;;;;;;;;;;;;;;-0.16;100.00;103378.84;4956073;28;20703;-70
2024/01/12 02:59:08;;;;;;;;;;;;;;;-0.14;100.00;103384.13;4951404;28;19965;-70
2024/01/12 03:01:34;;;;;;;;;;;;;;;-0.13;100.00;103383.25;4956045;28;19922;-70
2024/01/12 03:03:59;;;;;;;;;;;;;;;-0.13;100.00;103381.47;4954223;28;20351;-70
2024/01/12 03:06:25;;;;;;;;;;;;;;;-0.12;100.00;103390.31;4953475;28;20432;-70
2024/01/12 03:08:50;;;;;;;;;;;;;;;-0.13;100.00;103381.47;4949116;28;20437;-70
2024/01/12 03:11:15;;;;;;;;;;;;;;;-0.17;100.00;103377.94;4952255;28;20315;-70
2024/01/12 03:13:40;;;;;;;;;;;;;;;-0.21;100.00;103362.06;4944955;28;20391;-70
2024/01/12 03:16:05;;;;;;;;;;;;;;;-0.21;100.00;103370.00;4944020;28;20397;-70
2024/01/12 03:18:34;;;;;;;;;;;;;;;-0.25;100.00;103369.06;4943232;28;20361;-70
2024/01/12 03:20:59;;;;;;;;;;;;;;;-0.25;100.00;103365.56;4948878;28;19961;-70
2024/01/12 03:23:24;;;;;;;;;;;;;;;-0.26;100.00;103366.44;4947596;28;20005;-70
2024/01/12 03:25:50;;;;;;;;;;;;;;;-0.23;100.00;103362.03;4955841;28;19922;-70
2024/01/12 03:28:15;;;;;;;;;;;;;;;-0.25;100.00;103358.50;4955077;28;20067;-70
2024/01/12 03:30:40;;;;;;;;;;;;;;;-0.25;100.00;103363.78;4943687;28;19914;-70
2024/01/12 03:33:06;;;;;;;;;;;;;;;-0.23;100.00;103364.69;4946097;28;20340;-70
2024/01/12 03:35:32;;;;;;;;;;;;;;;-0.23;100.00;103363.81;4953481;28;19934;-70
2024/01/12 03:37:57;;;;;;;;;;;;;;;-0.22;100.00;103362.94;4953861;28;19930;-70
2024/01/12 03:40:22;;;;;;;;;;;;;;;-0.29;100.00;103351.47;4943468;28;20553;-70
2024/01/12 03:42:47;;;;;;;;;;;;;;;-0.39;100.00;103349.59;4944994;28;20316;-70
2024/01/12 03:45:12;;;;;;;;;;;;;;;-0.35;100.00;103351.41;4952374;28;20301;-70
2024/01/12 03:47:38;;;;;;;;;;;;;;;-0.36;100.00;103347.00;4947788;28;20404;-70
2024/01/12 03:50:03;;;;;;;;;;;;;;;-0.31;100.00;103353.19;4946010;28;20465;-70
2024/01/12 03:52:28;;;;;;;;;;;;;;;-0.29;100.00;103343.53;4947388;28;20821;-70
2024/01/12 03:54:53;;;;;;;;;;;;;;;-0.25;100.00;103341.78;4956540;28;20632;-70
2024/01/12 03:57:19;;;;;;;;;;;;;;;-0.26;100.00;103335.63;4958838;28;20361;-70
2024/01/12 03:59:44;;;;;;;;;;;;;;;-0.23;100.00;103343.56;4958617;28;19957;-70
2024/01/12 04:02:09;;;;;;;;;;;;;;;-0.24;100.00;103348.84;4959243;28;19972;-70
2024/01/12 04:04:34;;;;;;;;;;;;;;;-0.22;100.00;103347.97;4951791;28;20474;-70
2024/01/12 04:06:59;;;;;;;;;;;;;;;-0.20;100.00;103345.38;4966039;28;20008;-70
2024/01/12 04:09:25;;;;;;;;;;;;;;;-0.25;100.00;103340.03;4952581;28;19930;-70
2024/01/12 04:11:50;;;;;;;;;;;;;;;-0.20;100.00;103350.66;4963779;28;20012;-70
2024/01/12 04:14:15;;;;;;;;;;;;;;;-0.14;100.00;103357.72;4956206;28;20355;-70
2024/01/12 04:16:40;;;;;;;;;;;;;;;-0.13;100.00;103359.50;4949438;28;20020;-70
2024/01/12 04:19:05;;;;;;;;;;;;;;;-0.15;100.00;103359.50;4950523;28;19926;-70
2024/01/12 04:21:31;;;;;;;;;;;;;;;-0.12;100.00;103358.63;4953555;28;20294;-70
2024/01/12 04:23:56;;;;;;;;;;;;;;;-0.14;100.00;103361.25;4953415;28;20354;-70
2024/01/12 04:26:22;;;;;;;;;;;;;;;-0.12;100.00;103364.78;4953211;28;19969;-70
2024/01/12 04:28:47;;;;;;;;;;;;;;;-0.14;100.00;103360.34;4960353;28;19937;-70
2024/01/12 04:31:12;;;;;;;;;;;;;;;-0.14;100.00;103360.34;4960411;28;20015;-70
2024/01/12 04:33:37;;;;;;;;;;;;;;;-0.13;100.00;103354.22;4949850;28;20012;-70
2024/01/12 04:36:05;;;;;;;;;;;;;;;-0.12;100.00;103350.69;4951529;28;19923;-70
2024/01/12 04:38:30;;;;;;;;;;;;;;;-0.12;100.00;103348.06;4948841;28;20431;-70
2024/01/12 04:40:55;;;;;;;;;;;;;;;-0.15;100.00;103348.94;4944617;28;19922;-70
2024/01/12 04:43:20;;;;;;;;;;;;;;;-0.10;100.00;103349.81;4955578;28;19965;-70
2024/01/12 04:45:46;;;;;;;;;;;;;;;-0.10;100.00;103354.22;4956202;28;20395;-70
2024/01/12 04:48:11;;;;;;;;;;;;;;;-0.10;100.00;103360.38;4947058;28;20361;-70
2024/01/12 04:50:36;;;;;;;;;;;;;;;-0.13;100.00;103347.16;4950661;28;19930;-70
2024/01/12 04:53:01;;;;;;;;;;;;;;;-0.17;100.00;103343.63;4960868;28;19945;-70
2024/01/12 04:55:27;;;;;;;;;;;;;;;-0.18;100.00;103335.69;4958205;28;19965;-70
2024/01/12 04:57:52;;;;;;;;;;;;;;;-0.18;100.00;103333.94;4964219;28;20012;-70
2024/01/12 05:00:18;;;;;;;;;;;;;;;-0.18;100.00;103320.72;4961279;28;20494;-70
2024/01/12 05:02:43;;;;;;;;;;;;;;;-0.15;100.00;103325.16;4961170;28;20008;-70
2024/01/12 05:05:08;;;;;;;;;;;;;;;-0.25;100.00;103315.38;4958437;28;19981;-70
2024/01/12 05:07:34;;;;;;;;;;;;;;;-0.17;100.00;103327.78;4960408;28;19922;-70
2024/01/12 05:09:59;;;;;;;;;;;;;;;-0.19;100.00;103328.66;4953774;28;19965;-70
2024/01/12 05:12:24;;;;;;;;;;;;;;;-0.21;100.00;103330.38;4958589;28;19965;-70
2024/01/12 05:14:50;;;;;;;;;;;;;;;-0.27;100.00;103317.13;4955114;28;20025;-70
2024/01/12 05:17:15;;;;;;;;;;;;;;;-0.28;100.00;103325.94;4955399;28;19925;-70
2024/01/12 05:19:40;;;;;;;;;;;;;;;-0.25;100.00;103326.81;4957972;28;20625;-70
2024/01/12 05:22:05;;;;;;;;;;;;;;;-0.20;100.00;103324.25;4957199;28;19954;-70
2024/01/12 05:24:31;;;;;;;;;;;;;;;-0.21;100.00;103330.38;4957279;28;19926;-70
2024/01/12 05:26:56;;;;;;;;;;;;;;;-0.17;100.00;103334.81;4956162;28;19926;-70
2024/01/12 05:29:21;;;;;;;;;;;;;;;-0.17;100.00;103338.34;4958875;28;19926;-70
2024/01/12 05:31:46;;;;;;;;;;;;;;;-0.13;100.00;103343.66;4954793;28;19965;-70
2024/01/12 05:34:11;;;;;;;;;;;;;;;-0.13;100.00;103347.16;4957385;28;20388;-70
2024/01/12 05:36:37;;;;;;;;;;;;;;;-0.11;100.00;103349.81;4955170;28;19926;-70
2024/01/12 05:39:03;;;;;;;;;;;;;;;-0.12;100.00;103353.34;4950025;28;19988;-70
2024/01/12 05:41:29;;;;;;;;;;;;;;;-0.10;100.00;103352.47;4959585;28;19969;-70
2024/01/12 05:43:54;;;;;;;;;;;;;;;-0.08;100.00;103348.06;4966012;28;20400;-70
2024/01/12 05:46:19;;;;;;;;;;;;;;;-0.08;100.00;103341.94;4969290;28;20715;-70
2024/01/12 05:48:44;;;;;;;;;;;;;;;-0.04;100.00;103349.88;4954721;28;20412;-70
2024/01/12 05:51:11;;;;;;;;;;;;;;;-0.01;100.00;103351.66;4962026;28;19928;-70
2024/01/12 05:53:37;;;;;;;;;;;;;;;-0.13;100.00;103330.44;4960035;28;19925;-70
2024/01/12 05:56:02;;;;;;;;;;;;;;;-0.18;100.00;103327.78;4954510;28;19955;-70
2024/01/12 05:58:27;;;;;;;;;;;;;;;-0.15;100.00;103341.00;4951304;28;19922;-70
2024/01/12 06:00:52;;;;;;;;;;;;;;;-0.12;100.00;103346.28;4949840;28;19922;-70
2024/01/12 06:03:17;;;;;;;;;;;;;;;-0.11;100.00;103341.91;4959621;28;19918;-70
2024/01/12 06:05:45;;;;;;;;;;;;;;;-0.08;100.00;103347.22;4947442;28;19940;-70
2024/01/12 06:08:10;;;;;;;;;;;;;;;-0.11;100.00;103347.19;4950278;28;19922;-70
2024/01/12 06:10:36;;;;;;;;;;;;;;;-0.12;100.00;103350.69;4950314;28;19933;-71
2024/01/12 06:13:02;;;;;;;;;;;;;;;-0.13;100.00;103346.28;4950007;28;20287;-70
2024/01/12 06:15:27;;;;;;;;;;;;;;;-0.12;100.00;103351.56;4949754;28;19945;-70
2024/01/12 06:17:52;;;;;;;;;;;;;;;-0.06;100.00;103356.91;4947884;28;19922;-70
2024/01/12 06:20:17;;;;;;;;;;;;;;;-0.04;100.00;103362.22;4948263;28;19999;-70
2024/01/12 06:22:43;;;;;;;;;;;;;;;-0.03;100.00;103356.06;4947791;28;19922;-70
2024/01/12 06:25:08;;;;;;;;;;;;;;;-0.03;100.00;103361.34;4948107;28;19926;-70
2024/01/12 06:27:33;;;;;;;;;;;;;;;-0.02;100.00;103363.09;4951855;28;19926;-70
2024/01/12 06:29:58;;;;;;;;;;;;;;;-0.03;100.00;103358.69;4948614;28;19969;-70
2024/01/12 06:32:23;;;;;;;;;;;;;;;-0.01;100.00;103365.75;4949414;28;20029;-70
2024/01/12 06:34:49;;;;;;;;;;;;;;;-0.03;100.00;103364.84;4955945;28;19941;-70
2024/01/12 06:37:14;;;;;;;;;;;;;;;0.02;100.00;103364.00;4948069;28;19922;-70
2024/01/12 06:39:39;;;;;;;;;;;;;;;0.00;100.00;103366.66;4946428;28;20165;-70
2024/01/12 06:42:04;;;;;;;;;;;;;;;-0.03;100.00;103367.50;4956605;28;19929;-70
2024/01/12 06:44:29;;;;;;;;;;;;;;;-0.05;100.00;103368.38;4955525;28;19921;-70
2024/01/12 06:46:55;;;;;;;;;;;;;;;-0.07;100.00;103357.78;4949752;28;20459;-70
2024/01/12 06:49:20;;;;;;;;;;;;;;;0.01;100.00;103362.22;4966194;28;20412;-70
2024/01/12 06:51:46;;;;;;;;;;;;;;;0.02;100.00;103359.59;4949779;28;20419;-70
2024/01/12 06:54:11;;;;;;;;;;;;;;;0.03;100.00;103352.56;4957245;28;20024;-70
2024/01/12 06:56:37;;;;;;;;;;;;;;;0.06;100.00;103353.47;4951357;28;20503;-70
2024/01/12 06:59:03;;;;;;;;;;;;;;;0.05;100.00;103351.69;4956069;28;19922;-70
2024/01/12 07:01:28;;;;;;;;;;;;;;;0.06;100.00;103355.22;4951144;28;20030;-70
2024/01/12 07:03:54;;;;;;;;;;;;;;;0.04;100.00;103351.69;4945646;28;19935;-70
2024/01/12 07:06:19;;;;;;;;;;;;;;;0.05;100.00;103348.19;4954630;28;20364;-70
2024/01/12 07:08:44;;;;;;;;;;;;;;;0.01;100.00;103349.03;4956453;28;20341;-70
2024/01/12 07:11:10;;;;;;;;;;;;;;;0.01;100.00;103346.38;4947515;28;20432;-70
2024/01/12 07:13:35;;;;;;;;;;;;;;;-0.01;100.00;103341.09;4970400;28;19926;-70
2024/01/12 07:16:00;;;;;;;;;;;;;;;0.01;100.00;103341.97;4949905;28;19930;-70
2024/01/12 07:18:26;;;;;;;;;;;;;;;0.05;100.00;103342.91;4949643;28;19933;-70
2024/01/12 07:20:51;;;;;;;;;;;;;;;0.02;100.00;103337.59;4955725;28;19922;-70
2024/01/12 07:23:16;;;;;;;;;;;;;;;0.03;100.00;103342.00;4948146;28;19978;-70
2024/01/12 07:25:41;;;;;;;;;;;;;;;0.05;100.00;103335.84;4964906;28;20016;-70
2024/01/12 07:28:07;;;;;;;;;;;;;;;0.05;100.00;103353.47;4947466;28;19918;-70
2024/01/12 07:30:32;;;;;;;;;;;;;;;0.08;100.00;103351.72;4937179;28;19922;-70
2024/01/12 07:32:57;;;;;;;;;;;;;;;0.06;100.00;103345.53;4943371;28;19930;-70
2024/01/12 07:35:24;;;;;;;;;;;;;;;0.07;100.00;103335.88;4951762;28;21283;-70
2024/01/12 07:37:52;;;;;;;;;;;;;;;0.07;100.00;103339.38;4958867;28;19928;-70
2024/01/12 07:40:17;;;;;;;;;;;;;;;0.08;100.00;103341.16;4939537;28;19926;-70
2024/01/12 07:42:43;;;;;;;;;;;;;;;0.10;100.00;103331.47;4958056;28;19922;-70
2024/01/12 07:45:08;;;;;;;;;;;;;;;0.12;100.00;103323.56;4971488;28;19996;-70
2024/01/12 07:47:34;;;;;;;;;;;;;;;0.13;100.00;103334.13;4960592;28;20300;-70
2024/01/12 07:49:59;;;;;;;;;;;;;;;0.18;100.00;103330.66;4945384;28;19933;-70
2024/01/12 07:52:24;;;;;;;;;;;;;;;0.21;100.00;103339.47;4945012;28;19976;-70
2024/01/12 07:54:50;;;;;;;;;;;;;;;0.23;100.00;103340.34;4957917;28;20008;-70
2024/01/12 07:57:15;;;;;;;;;;;;;;;0.27;100.00;103349.19;4957355;28;20180;-70
2024/01/12 07:59:41;;;;;;;;;;;;;;;0.32;100.00;103349.22;4952273;28;19926;-71
2024/01/12 08:02:06;;;;;;;;;;;;;;;0.32;100.00;103343.94;4955701;28;19922;-70
2024/01/12 08:04:31;;;;;;;;;;;;;;;0.35;100.00;103346.59;4954248;28;19922;-70
2024/01/12 08:06:56;;;;;;;;;;;;;;;0.39;100.00;103349.25;4955767;28;19928;-70
2024/01/12 08:09:21;;;;;;;;;;;;;;;0.44;100.00;103349.28;4962156;28;19910;-71
2024/01/12 08:11:47;;;;;;;;;;;;;;;0.48;100.00;103347.56;4959020;28;19922;-70
2024/01/12 08:14:12;;;;;;;;;;;;;;;0.52;100.00;103349.34;4958327;28;19929;-70
2024/01/12 08:16:37;;;;;;;;;;;;;;;0.56;100.00;103348.44;4956726;28;19960;-70
2024/01/12 08:19:02;;;;;;;;;;;;;;;0.54;100.00;103358.13;4956678;28;19945;-70
2024/01/12 08:21:28;;;;;;;;;;;;;;;0.57;100.00;103361.69;4957587;28;20340;-70
2024/01/12 08:23:54;;;;;;;;;;;;;;;0.56;100.00;103370.50;4957220;28;20593;-70
2024/01/12 08:26:19;;;;;;;;;;;;;;;0.58;100.00;103362.56;4956902;28;19969;-70
2024/01/12 08:28:51;;;;;;;;;;;;;;;0.58;100.00;103359.91;4955956;28;19930;-70
2024/01/12 08:31:16;;;;;;;;;;;;;;;0.61;100.00;103361.72;4957609;28;19922;-70
2024/01/12 08:33:42;;;;;;;;;;;;;;;0.65;100.00;103358.22;4956453;28;19933;-70
2024/01/12 08:36:07;;;;;;;;;;;;;;;0.66;100.00;103355.56;4957723;28;20448;-70
2024/01/12 08:38:32;;;;;;;;;;;;;;;0.63;100.00;103352.91;4957540;28;19922;-70
2024/01/12 08:40:57;;;;;;;;;;;;;;;0.64;100.00;103354.66;4958546;28;19929;-70
2024/01/12 08:43:23;;;;;;;;;;;;;;;0.66;100.00;103371.41;4958515;28;20029;-70
2024/01/12 08:45:48;;;;;;;;;;;;;;;0.70;100.00;103367.03;4959146;28;20009;-70
2024/01/12 08:48:13;;;;;;;;;;;;;;;0.74;100.00;103364.41;4956932;28;20269;-70
2024/01/12 08:50:38;;;;;;;;;;;;;;;0.77;100.00;103360.03;4948755;28;20246;-70
2024/01/12 08:53:03;;;;;;;;;;;;;;;0.77;100.00;103358.25;4957044;28;19926;-70
2024/01/12 08:55:29;;;;;;;;;;;;;;;0.79;100.00;103358.25;4953773;28;19944;-70
2024/01/12 08:57:54;;;;;;;;;;;;;;;0.82;100.00;103359.16;4960710;28;19950;-70
2024/01/12 09:00:19;;;;;;;;;;;;;;;0.89;100.00;103360.94;4954452;28;20324;-70
2024/01/12 09:02:44;;;;;;;;;;;;;;;0.91;100.00;103355.66;4953310;28;19922;-70
2024/01/12 09:05:10;;;;;;;;;;;;;;;0.91;100.00;103347.72;4950308;28;19952;-71
2024/01/12 09:07:36;;;;;;;;;;;;;;;0.98;100.00;103346.84;4954361;28;19968;-70
2024/01/12 09:10:02;;;;;;;;;;;;;;;1.04;100.00;103335.41;4960381;28;20044;-71
2024/01/12 09:12:27;;;;;;;;;;;;;;;1.07;100.00;103338.06;4946840;28;20012;-71
2024/01/12 09:14:53;;;;;;;;;;;;;;;1.10;100.00;103342.47;4961551;28;20257;-71
2024/01/12 09:17:18;;;;;;;;;;;;;;;1.15;100.00;103343.34;4961402;28;19926;-70
2024/01/12 09:19:43;;;;;;;;;;;;;;;1.12;100.00;103338.97;4959147;28;19922;-70
2024/01/12 09:22:09;;;;;;;;;;;;;;;1.24;100.00;103351.31;4959741;28;19926;-71
2024/01/12 09:24:34;;;;;;;;;;;;;;;1.31;100.00;103349.56;4960641;28;20247;-71
2024/01/12 09:27:00;;;;;;;;;;;;;;;1.32;100.00;103346.94;4961576;28;19929;-70
2024/01/12 09:29:25;;;;;;;;;;;;;;;1.42;100.00;103346.94;4957007;28;19925;-71
2024/01/12 09:31:50;;;;;;;;;;;;;;;1.45;100.00;103339.88;4954872;28;20301;-71
2024/01/12 09:34:15;;;;;;;;;;;;;;;1.44;100.00;103342.53;4959164;28;19965;-70
2024/01/12 09:36:41;;;;;;;;;;;;;;;1.41;100.00;103337.22;4960371;28;19965;-70
2024/01/12 09:39:06;;;;;;;;;;;;;;;1.41;100.00;103334.56;4961593;28;19965;-70
2024/01/12 09:41:36;;;;;;;;;;;;;;;1.45;100.00;103334.59;4959841;28;20017;-71
2024/01/12 09:44:01;;;;;;;;;;;;;;;1.43;100.00;103338.09;4966274;28;19952;-71
2024/01/12 09:46:28;;;;;;;;;;;;;;;1.43;100.00;103336.34;4966557;28;20284;-70
2024/01/12 09:48:53;;;;;;;;;;;;;;;1.45;100.00;103334.59;4952972;28;19930;-70
2024/01/12 09:51:18;;;;;;;;;;;;;;;1.56;100.00;103336.34;4950777;28;19926;-70
2024/01/12 09:53:43;;;;;;;;;;;;;;;1.66;100.00;103338.13;4973308;28;20017;-70
2024/01/12 09:56:09;;;;;;;;;;;;;;;1.69;100.00;103343.44;4956887;28;19921;-71
2024/01/12 09:58:35;;;;;;;;;;;;;;;1.68;100.00;103346.06;4959179;28;19922;-70
2024/01/12 10:01:00;;;;;;;;;;;;;;;1.74;100.00;103346.94;4970490;28;20315;-70
2024/01/12 10:03:25;;;;;;;;;;;;;;;1.83;100.00;103355.75;4954654;28;19918;-70
2024/01/12 10:05:51;;;;;;;;;;;;;;;1.88;100.00;103354.00;4968738;28;19926;-70
2024/01/12 10:08:16;;;;;;;;;;;;;;;1.97;100.00;103364.59;4955183;28;20008;-71
2024/01/12 10:10:41;;;;;;;;;;;;;;;1.83;100.00;103347.81;4955639;28;20327;-71
2024/01/12 10:13:06;;;;;;;;;;;;;;;2.01;100.00;103350.44;4959405;28;19922;-71
2024/01/12 10:15:38;;;;;;;;;;;;;;;2.14;100.00;103359.25;4953314;28;19932;-71
2024/01/12 10:18:03;;;;;;;;;;;;;;;2.21;100.00;103360.16;4955358;28;19929;-71
2024/01/12 10:20:34;;;;;;;;;;;;;;;2.08;100.00;103359.28;4954166;28;20244;-71
2024/01/12 10:22:59;;;;;;;;;;;;;;;2.05;100.00;103361.94;4951383;28;22260;-70
2024/01/12 10:25:25;;;;;;;;;;;;;;;2.07;100.00;103352.22;4955729;28;20314;-71
2024/01/12 10:27:58;;;;;;;;;;;;;;;2.08;100.00;103346.91;4950499;28;20418;-71
2024/01/12 10:30:23;;;;;;;;;;;;;;;2.03;100.00;103351.31;4954484;28;19922;-71
2024/01/12 10:32:50;;;;;;;;;;;;;;;2.01;100.00;103349.56;4957838;28;20240;-70
2024/01/12 10:35:15;;;;;;;;;;;;;;;2.02;100.00;103344.25;4960266;28;19926;-70
2024/01/12 10:37:40;;;;;;;;;;;;;;;2.06;100.00;103347.81;4956850;28;19922;-71
2024/01/12 10:40:06;;;;;;;;;;;;;;;2.08;100.00;103341.59;4958465;28;20408;-71
2024/01/12 10:42:31;;;;;;;;;;;;;;;2.13;100.00;103336.28;4959159;28;20394;-70
2024/01/12 10:44:56;;;;;;;;;;;;;;;2.18;100.00;103338.94;4959342;28;20017;-70
2024/01/12 10:47:22;;;;;;;;;;;;;;;2.29;100.00;103341.56;4958099;28;19922;-71
2024/01/12 10:49:51;;;;;;;;;;;;;;;2.21;100.00;103320.38;4966947;28;20310;-71
2024/01/12 10:52:26;;;;;;;;;;;;;;;2.29;100.00;103321.22;4965275;28;19922;-71
2024/01/12 10:54:54;;;;;;;;;;;;;;;2.37;100.00;103326.53;4950942;28;19945;-71
2024/01/12 10:57:19;;;;;;;;;;;;;;;2.37;100.00;103318.56;4960516;28;19918;-71
2024/01/12 10:59:44;;;;;;;;;;;;;;;2.32;100.00;103326.53;4957373;28;20439;-70
2024/01/12 11:02:11;;;;;;;;;;;;;;;2.30;100.00;103322.13;4973467;28;19925;-70
2024/01/12 11:04:37;;;;;;;;;;;;;;;2.13;100.00;103330.13;4960017;28;19924;-71
2024/01/12 11:07:02;;;;;;;;;;;;;;;2.24;100.00;103326.53;4958732;28;19918;-71
2024/01/12 11:09:27;;;;;;;;;;;;;;;2.30;100.00;103328.28;4954956;28;19925;-70
2024/01/12 11:11:59;;;;;;;;;;;;;;;2.34;100.00;103321.22;4949406;28;19978;-70
2024/01/12 11:14:24;;;;;;;;;;;;;;;2.24;100.00;103318.59;4960109;28;19925;-71
2024/01/12 11:16:50;;;;;;;;;;;;;;;2.34;100.00;103330.06;4951627;28;19918;-70
2024/01/12 11:19:16;;;;;;;;;;;;;;;2.30;100.00;103314.16;4958363;28;20297;-70
2024/01/12 11:21:42;;;;;;;;;;;;;;;2.37;100.00;103327.41;4957421;28;19922;-70
2024/01/12 11:24:08;;;;;;;;;;;;;;;2.43;100.00;103329.13;4957938;28;19918;-70
2024/01/12 11:26:34;;;;;;;;;;;;;;;2.45;100.00;103324.72;4958794;28;19918;-70
2024/01/12 11:28:59;;;;;;;;;;;;;;;2.51;100.00;103322.03;4958599;28;19941;-71
2024/01/12 11:31:27;;;;;;;;;;;;;;;2.54;100.00;103329.09;4959474;28;19929;-71
2024/01/12 11:34:02;;;;;;;;;;;;;;;2.54;100.00;103323.78;4955045;28;19969;-70
2024/01/12 11:36:28;;;;;;;;;;;;;;;2.57;100.00;103322.91;4957726;28;20509;-70
2024/01/12 11:38:55;;;;;;;;;;;;;;;2.57;100.00;103326.44;4973123;28;19922;-70
2024/01/12 11:41:20;;;;;;;;;;;;;;;2.60;100.00;103317.59;4959753;28;19917;-70
2024/01/12 11:43:52;;;;;;;;;;;;;;;2.66;100.00;103321.09;4953483;28;20285;-70
2024/01/12 11:46:17;;;;;;;;;;;;;;;2.52;100.00;103299.94;4957729;28;20356;-70
2024/01/12 11:48:47;;;;;;;;;;;;;;;2.59;100.00;103307.88;4959706;28;19976;-70
2024/01/12 11:51:19;;;;;;;;;;;;;;;2.59;100.00;103305.22;4954777;28;19921;-70
2024/01/12 11:53:48;;;;;;;;;;;;;;;2.57;100.00;103307.00;4957350;28;19926;-70
2024/01/12 11:56:13;;;;;;;;;;;;;;;2.45;100.00;103302.63;4968611;28;20304;-70
2024/01/12 11:58:38;;;;;;;;;;;;;;;2.38;100.00;103299.13;4957912;28;20375;-71
2024/01/12 12:01:06;;;;;;;;;;;;;;;2.42;100.00;103287.59;4952128;28;19964;-70
2024/01/12 12:03:31;;;;;;;;;;;;;;;2.43;100.00;103286.69;4952740;28;20005;-70
2024/01/12 12:05:56;;;;;;;;;;;;;;;2.45;100.00;103278.75;4957027;28;20021;-70
2024/01/12 12:08:21;;;;;;;;;;;;;;;2.36;100.00;103285.00;4971565;28;19922;-70
2024/01/12 12:10:47;;;;;;;;;;;;;;;2.44;100.00;103277.00;4959548;28;19928;-71
2024/01/12 12:13:13;;;;;;;;;;;;;;;2.43;100.00;103268.16;4970436;28;19976;-70
2024/01/12 12:15:38;;;;;;;;;;;;;;;2.37;100.00;103262.88;4964967;28;19933;-70
2024/01/12 12:18:03;;;;;;;;;;;;;;;2.38;100.00;103252.25;4957342;28;20102;-71
2024/01/12 12:20:28;;;;;;;;;;;;;;;2.31;100.00;103260.25;4953407;28;19928;-71
2024/01/12 12:22:54;;;;;;;;;;;;;;;2.32;100.00;103256.72;4952594;28;20313;-72